Ardenvoir, WA (98811)

5:34 AM PST on February 01, 2015 (GMT -0800)
Entiat Valley | Change Station
CLOSE
Current Station
Personal Weather Station
Location: Entiat, WA
Elevation: 1050 ft
Nearby Weather Stations

Elev 1050 ft 47.70 °N, 120.33 °W | Updated 2 seconds ago

Overcast
Overcast
32.6 °F
Feels Like 33 °F
N
0.0
Wind Variable Wind from West
Gusts 0.0 mph

Today
High -- | Low -- °F
--% Chance of Precip.
Yesterday
High -- | Low -- °F
Precip. -- in
7:28 AM 5:02 PM
Waxing Gibbous, 95% visible
Pressure 30.22 in
Visibility 10.0 miles
Clouds Mostly Cloudy 2300 ft
Overcast 12000 ft
Windchill 33 °F
Dew Point 32 °F
Humidity 97%
Rainfall 0.00 in
Snow Depth Not available.
UV 0 out of 12
Pollen 3.60 out of 12
Air Quality Not available.
Flu Activity Not available.
SPECI KEAT 011328Z AUTO 00000KT 10SM BKN023 OVC120 02/M01 A3022 RMK AO2 T00221006

More Conditions Fewer Conditions

Pressure 30.22 in
Visibility 10.0 miles
Clouds Mostly Cloudy 2300 ft
Overcast 12000 ft
Windchill 33 °F
Dew Point 32 °F
Humidity 97%
Rainfall 0.00 in
Snow Depth Not available.
UV 0 out of 12
Pollen 3.60 out of 12
Air Quality Not available.
Flu Activity Not available.
SPECI KEAT 011328Z AUTO 00000KT 10SM BKN023 OVC120 02/M01 A3022 RMK AO2 T00221006

More Conditions Fewer Conditions

10-Day Weather Forecast

Almanac

Astronomy

Feb. 01, 2015 Rise Set
Actual Time
Civil Twilight
Nautical Twilight
Astronomical Twilight
Moon
Length of Visible Light
Length of Day
Tomorrow will be .
, % of the Moon is Illuminated

Today's Extremes

State Highs State Lows

Community

WunderPhotos

Upload Photos

1,792,361 photos uploaded!

WunderBlogs® & News

Nearby

Air Quality

  Air Quality AQ Index Pollutant
Not available.

Snow Depth

Station Depth Elevation

Earthquake Activity

City Distance Mag. Time & Date
Minimum magnitude displayed is 2.5.

Coastal Water Temperatures

Place Temperature

Nearby Weather Stations